Flight Track Log - Related Links

Times and Time Zones

All times are in EST time to prevent confusion due to time zone crossing. See the AAR8730 flight status page for this flight to view local times or setup timezone preferences in your user account.

Time Position Orientation Groundspeed Altitude Reporting Facility
EST Latitude Longitude Course Direction KTS MPH feet Rate Location/Type
Sat 11:06:00 PM 35.3072 127.4776 346° North  Level Estimated
Sat 11:07:00 PM 35.3851 127.4545 346° North  Level Estimated
Sat 11:08:00 PM 35.4630 127.4314 346° North  Level Estimated
Sat 11:09:00 PM 35.5409 127.4082 346° North  Level Estimated
Sat 11:10:00 PM 35.6188 127.3850 346° North  Level Estimated
Sat 11:11:00 PM 35.6967 127.3617 346° North  Level Estimated
Sat 11:12:00 PM 35.7745 127.3383 346° North  Level Estimated
Sat 11:13:00 PM 35.8524 127.3150 346° North  Level Estimated
Sat 11:14:00 PM 35.9302 127.2916 346° North  Level Estimated
Sat 11:15:00 PM 36.0081 127.2681 346° North  Level Estimated
Sat 11:16:00 PM 36.0859 127.2446 346° North  Level Estimated
Sat 11:17:00 PM 36.1638 127.2210 346° North  Level Estimated
Sat 11:18:00 PM 36.2416 127.1974 346° North  Level Estimated
Sat 11:19:00 PM 36.3195 127.1738 346° North  Level Estimated
Sat 11:20:00 PM 36.3973 127.1501 346° North  Level Estimated
Sat 11:21:00 PM 36.4751 127.1263 346° North  Level Estimated
Sat 11:22:00 PM 36.5529 127.1025 346° North  Level Estimated
Sat 11:23:00 PM 36.6308 127.0787 346° North  Level Estimated
Sat 11:24:00 PM 36.7086 127.0548 346° North  Level Estimated
Sat 11:25:00 PM 36.7864 127.0309 346° North  Level Estimated
Sat 11:26:00 PM 36.8642 127.0069 346° North  Level Estimated
Sat 11:27:00 PM 36.9420 126.9828 346° North  Level Estimated
Sat 11:28:00 PM 37.0198 126.9587 346° North  Level Estimated
Sat 11:29:00 PM 37.0976 126.9346 346° North  Level Estimated
Sat 11:30:00 PM 37.1753 126.9104 346° North  Level Estimated
Sat 11:31:00 PM 37.2531 126.8862 346° North  Level Estimated
Sat 11:32:00 PM 37.3309 126.8619 346° North  Level Estimated
Sat 11:33:00 PM 37.4087 126.8376 346° North  Level Estimated
Sat 11:34:00 PM 37.4864 126.8132 346° North  Level Estimated
Sat 11:35:00 PM 37.5583 126.7906 346° North  Level Estimated
Sat 11:36:00 PM 37.5583 126.7906 288° West  Level Estimated
Sat 11:37:00 PM 37.5583 126.7906 288° West  Level Estimated
Sat 11:38:00 PM 37.5583 126.7906 288° West  Level Estimated
Sat 11:39:00 PM 37.5583 126.7906 288° West  Level Estimated
Sat 11:40:00 PM 37.5583 126.7906 288° West  Level Estimated
Sat 11:41:00 PM 37.5583 126.7906 288° West  Level Estimated
Sat 11:42:00 PM 37.5583 126.7906 288° West  Level Estimated
Sat 11:43:00 PM 37.5583 126.7906 288° West  Level Estimated
Sat 11:44:00 PM 37.5583 126.7906 288° West  Level Estimated
Sat 11:45:00 PM 37.5583 126.7906 288° West  Level Estimated
Sat 11:46:00 PM 37.5583 126.7906 288° West  Level Estimated
Sat 11:47:00 PM 37.5583 126.7906 288° West  Level Estimated

Login

Don't have an account? Register now (free) for customized features, flight alerts, and more!